Wilson Lista — 8PRW — position and weather

sailwx.info

Track history (hours):
 
Tides and Currents Weather Stations Pressure Air Temp Water Temp Dewpoint Dewpoint Depression Visibility Wind Speed Wind Dir Waves Ship Positions

Wilson Lista

Last reported at 2015-Mar-06 06:33 UTC. Time now 2015-Mar-06 07:32 UTC.
Position N 55°03' E 014°12'.

Length 88 m; draft 5.6 m.

Type: Cargo ship. MMSI: 314188000.

Date/timePositionNaut miles runAvg speedWind from/ knotsBaromVisibWave heightAir tempDewpointWater temp
2015-Mar-06 06:33N 55°03' E 014°12'9 8.8
2015-Mar-06 05:33N 54°59' E 013°59'47 9.4
2015-Mar-06 00:32N 54°44' E 012°42'11 9.5
2015-Mar-05 23:25N 54°38' E 012°27'8 9.2
2015-Mar-05 22:33N 54°32' E 012°17'9 9.1
2015-Mar-05 21:33N 54°25' E 012°09'9 9.3
2015-Mar-05 20:33N 54°25' E 011°52'10 9.5
2015-Mar-05 19:33N 54°27' E 011°37'10 9.7
2015-Mar-05 18:33N 54°32' E 011°22'1010.0
2015-Mar-05 17:33N 54°35' E 011°06'19 9.4
2015-Mar-05 15:33N 54°33' E 010°33'9 9.3
2015-Mar-05 14:33N 54°29' E 010°19'9 8.8
2015-Mar-05 13:33N 54°22' E 010°10'1 1.3
2015-Mar-05 12:33N 54°22' E 010°08'6 5.7
2015-Mar-05 11:33N 54°21' E 009°58'8 7.9
2015-Mar-05 10:32N 54°20' E 009°44'19 6.0
2015-Mar-05 07:22N 54°08' E 009°20'7 8.6
2015-Mar-05 06:34N 54°01' E 009°18'8 8.1
2015-Mar-05 05:34N 53°54' E 009°10'0 0.3
2015-Mar-05 04:33N 53°54' E 009°09'0 0.0
2015-Mar-05 03:33N 53°54' E 009°09'0 0.0
2015-Mar-05 02:32N 53°54' E 009°09'0 0.0
2015-Mar-05 01:32N 53°54' E 009°09'0 0.0
2015-Mar-05 00:31N 53°54' E 009°09'0 0.0
2015-Mar-04 23:31N 53°54' E 009°09'1 0.8
2015-Mar-04 22:33N 53°54' E 009°09'4 4.5
2015-Mar-04 21:33N 53°52' E 009°02'9 9.2
2015-Mar-04 20:33N 53°51' E 008°46'9 9.4
2015-Mar-04 19:33N 53°58' E 008°36'9 8.8
2015-Mar-04 18:33N 53°59' E 008°21'9 9.1
2015-Mar-04 17:33N 53°59' E 008°06'8 8.4
2015-Mar-04 16:34N 53°57' E 007°52'8 7.9
2015-Mar-04 15:33N 53°55' E 007°38'7 7.5
2015-Mar-04 14:33N 53°53' E 007°26'8 7.7
2015-Mar-04 13:31N 53°52' E 007°13'38 8.5
2015-Mar-04 09:03N 53°42' E 006°11'5 9.3
2015-Mar-04 08:32N 53°41' E 006°03'9 9.6
2015-Mar-04 07:33N 53°38' E 005°48'10 9.8
2015-Mar-04 06:33N 53°35' E 005°32'10 9.7
2015-Mar-04 05:33N 53°32' E 005°17'10 9.7
2015-Mar-04 04:33N 53°28' E 005°02'10 9.8
2015-Mar-04 03:32N 53°24' E 004°46'73 7.8
2015-Mar-03 18:09N 52°19' E 003°52'5 8.0
2015-Mar-03 17:33N 52°14' E 003°53'8 8.3
2015-Mar-03 16:33N 52°06' E 003°55'8 8.4
2015-Mar-03 15:33N 51°59' E 004°03'9 9.4
2015-Mar-03 14:33N 51°54' E 004°16'5 5.3
2015-Mar-03 13:33N 51°54' E 004°25'0 0.0
2015-Mar-03 12:33N 51°54' E 004°25'0 0.0
2015-Mar-03 11:29N 51°54' E 004°25'0 0.0
2015-Mar-03 10:29N 51°54' E 004°25'0 0.0
2015-Mar-03 09:32N 51°54' E 004°25'0 0.0
2015-Mar-03 08:28N 51°54' E 004°25'0 0.0
2015-Mar-03 07:28N 51°54' E 004°25'0 0.0
2015-Mar-03 06:33N 51°54' E 004°25'0 0.0
2015-Mar-03 05:30N 51°54' E 004°25'0 0.0
2015-Mar-03 04:32N 51°54' E 004°25'0 0.0
2015-Mar-03 03:32N 51°54' E 004°25'0 0.0
2015-Mar-03 02:32N 51°54' E 004°25'1 1.1
2015-Mar-03 01:33N 51°54' E 004°23'4 4.1
2015-Mar-03 00:33N 51°50' E 004°26'8 7.8
2015-Mar-02 23:34N 51°48' E 004°38'0 0.0
2015-Mar-02 22:33N 51°48' E 004°38'0 0.0
2015-Mar-02 21:34N 51°48' E 004°38'0 0.0
2015-Mar-02 20:34N 51°48' E 004°38'0 0.0
2015-Mar-02 19:33N 51°48' E 004°38'0 0.0
2015-Mar-02 18:33N 51°48' E 004°38'0 0.0
2015-Mar-02 17:33N 51°48' E 004°38'0 0.0
2015-Mar-02 16:33N 51°48' E 004°38'0 0.0
2015-Mar-02 15:34N 51°48' E 004°38'0 0.0
2015-Mar-02 14:34N 51°48' E 004°38'0 0.0
2015-Mar-02 13:33N 51°48' E 004°38'0 0.0
2015-Mar-02 12:33N 51°48' E 004°38'0 0.0
2015-Mar-02 11:34N 51°48' E 004°38'0 0.0
2015-Mar-02 10:34N 51°48' E 004°38'0 0.0
2015-Mar-02 09:34N 51°48' E 004°38'0 0.0
2015-Mar-02 08:34N 51°48' E 004°38'0 0.0
2015-Mar-02 07:34N 51°48' E 004°38'0 0.0
2015-Mar-02 06:34N 51°48' E 004°38'0 0.0
2015-Mar-02 05:33N 51°48' E 004°38'0 0.0
2015-Mar-02 04:34N 51°48' E 004°38'0 0.0
2015-Mar-02 03:33N 51°48' E 004°38'0 0.0
2015-Mar-02 02:33N 51°48' E 004°38'0 0.0
2015-Mar-02 01:34N 51°48' E 004°38'0 0.0
2015-Mar-02 00:33N 51°48' E 004°38'0 0.0
2015-Mar-01 23:33N 51°48' E 004°38'0 0.0
2015-Mar-01 22:33N 51°48' E 004°38'0 0.0
2015-Mar-01 21:34N 51°48' E 004°38'0 0.0
2015-Mar-01 20:33N 51°48' E 004°38'0 0.0
2015-Mar-01 19:33N 51°48' E 004°38'0 0.0
2015-Mar-01 18:34N 51°48' E 004°38'0 0.0
2015-Mar-01 17:33N 51°48' E 004°38'0 0.0
2015-Mar-01 16:33N 51°48' E 004°38'0 0.0
2015-Mar-01 15:33N 51°48' E 004°38'0 0.0
2015-Mar-01 14:33N 51°48' E 004°38'0 0.0
2015-Mar-01 13:33N 51°48' E 004°38'0 0.0
2015-Mar-01 12:33N 51°48' E 004°38'0 0.0
2015-Mar-01 11:34N 51°48' E 004°38'0 0.0
2015-Mar-01 10:33N 51°48' E 004°38'0 0.0
2015-Mar-01 09:33N 51°48' E 004°38'0 0.0
2015-Mar-01 08:33N 51°48' E 004°38'0 0.0
2015-Mar-01 07:33N 51°48' E 004°38'0 0.0
2015-Mar-01 06:33N 51°48' E 004°38'0 0.0
2015-Mar-01 05:34N 51°48' E 004°38'0 0.0
2015-Mar-01 04:34N 51°48' E 004°38'0 0.0
2015-Mar-01 03:34N 51°48' E 004°38'0 0.0
2015-Mar-01 02:33N 51°48' E 004°38'0 0.0
2015-Mar-01 01:33N 51°48' E 004°38'0 0.0
2015-Mar-01 00:33N 51°48' E 004°38'0 0.0
2015-Feb-28 23:33N 51°48' E 004°38'0 0.0
2015-Feb-28 22:33N 51°48' E 004°38'0 0.0
2015-Feb-28 21:33N 51°48' E 004°38'0 0.0
2015-Feb-28 20:33N 51°48' E 004°38'0 0.0
2015-Feb-28 19:33N 51°48' E 004°38'0 0.0
2015-Feb-28 18:33N 51°48' E 004°38'0 0.0
2015-Feb-28 17:33N 51°48' E 004°38'0 0.0
2015-Feb-28 16:33N 51°48' E 004°38'0 0.0
2015-Feb-28 15:33N 51°48' E 004°38'0 0.0
2015-Feb-28 14:33N 51°48' E 004°38'0 0.0
2015-Feb-28 13:33N 51°48' E 004°38'0 0.0
2015-Feb-28 12:33N 51°48' E 004°38'0 0.0
2015-Feb-28 11:33N 51°48' E 004°38'0 0.0
2015-Feb-28 10:33N 51°48' E 004°38'0 0.0
2015-Feb-28 09:33N 51°48' E 004°38'0 0.0
2015-Feb-28 08:33N 51°48' E 004°38'0 0.0
2015-Feb-28 07:33N 51°48' E 004°38'0 0.0
2015-Feb-28 06:33N 51°48' E 004°38'0 0.0
2015-Feb-28 05:33N 51°48' E 004°38'0 0.0
2015-Feb-28 04:33N 51°48' E 004°38'0 0.0
2015-Feb-28 03:33N 51°48' E 004°38'0 0.0
2015-Feb-28 02:33N 51°48' E 004°38'0 0.0
2015-Feb-28 01:33N 51°48' E 004°38'0 0.0
2015-Feb-28 00:33N 51°48' E 004°38'0 0.0
2015-Feb-27 23:33N 51°48' E 004°38'0 0.0
2015-Feb-27 22:33N 51°48' E 004°38'0 0.0
2015-Feb-27 21:33N 51°48' E 004°38'2 1.9
2015-Feb-27 20:34N 51°48' E 004°35'7 6.9
2015-Feb-27 19:33N 51°51' E 004°25'5 5.4
2015-Feb-27 18:33N 51°54' E 004°18'8 7.9
2015-Feb-27 17:33N 51°58' E 004°07'8 7.5
2015-Feb-27 16:33N 52°01' E 003°56'  
2015-Feb-25 12:18N 58°12' E 005°47'6 7.2
2015-Feb-25 11:30N 58°18' E 005°49'7 7.2
2015-Feb-25 10:33N 58°25' E 005°50'4 3.8
2015-Feb-25 09:29N 58°29' E 005°53'0 0.0
2015-Feb-25 06:33N 58°29' E 005°53'0 0.0
2015-Feb-25 05:21N 58°29' E 005°53'0 0.0
2015-Feb-25 04:26N 58°29' E 005°53'0 0.0
2015-Feb-25 03:26N 58°29' E 005°53'0 0.0
2015-Feb-25 02:19N 58°29' E 005°53'0 0.0
2015-Feb-25 01:07N 58°29' E 005°53'0 0.0
2015-Feb-25 00:31N 58°29' E 005°53'0 0.0
2015-Feb-24 23:30N 58°29' E 005°53'0 0.0
2015-Feb-24 20:05N 58°29' E 005°53'0 0.0
2015-Feb-24 19:16N 58°29' E 005°53'0 0.0
2015-Feb-24 16:27N 58°29' E 005°53'4 4.7
2015-Feb-24 15:34N 58°24' E 005°53'2 1.8
2015-Feb-24 14:33N 58°24' E 005°56'6 6.2
2015-Feb-24 13:33N 58°27' E 005°46'8 7.0
2015-Feb-24 12:25N 58°32' E 005°35'18 5.5
2015-Feb-24 09:09N 58°47' E 005°16'2 3.4
2015-Feb-24 08:34N 58°49' E 005°14'4 3.5
2015-Feb-24 07:32N 58°52' E 005°10'4 4.0
2015-Feb-24 06:34N 58°55' E 005°06'  
Track history (hours):
 
Tides and Currents Weather Stations Pressure Air Temp Water Temp Dewpoint Dewpoint Depression Visibility Wind Speed Wind Dir Waves Ship Positions

Wilson Lista

Last reported at 2015-Mar-06 06:33 UTC. Time now 2015-Mar-06 07:32 UTC.
Position N 55°03' E 014°12'.

Length 88 m; draft 5.6 m.

Type: Cargo ship. MMSI: 314188000.

Date/timePositionNaut miles runAvg speedWind from/ knotsBaromVisibWave heightAir tempDewpointWater temp
2015-Mar-06 06:33N 55°03' E 014°12'9 8.8
2015-Mar-06 05:33N 54°59' E 013°59'47 9.4
2015-Mar-06 00:32N 54°44' E 012°42'11 9.5
2015-Mar-05 23:25N 54°38' E 012°27'8 9.2
2015-Mar-05 22:33N 54°32' E 012°17'9 9.1
2015-Mar-05 21:33N 54°25' E 012°09'9 9.3
2015-Mar-05 20:33N 54°25' E 011°52'10 9.5
2015-Mar-05 19:33N 54°27' E 011°37'10 9.7
2015-Mar-05 18:33N 54°32' E 011°22'1010.0
2015-Mar-05 17:33N 54°35' E 011°06'19 9.4
2015-Mar-05 15:33N 54°33' E 010°33'9 9.3
2015-Mar-05 14:33N 54°29' E 010°19'9 8.8
2015-Mar-05 13:33N 54°22' E 010°10'1 1.3
2015-Mar-05 12:33N 54°22' E 010°08'6 5.7
2015-Mar-05 11:33N 54°21' E 009°58'8 7.9
2015-Mar-05 10:32N 54°20' E 009°44'19 6.0
2015-Mar-05 07:22N 54°08' E 009°20'7 8.6
2015-Mar-05 06:34N 54°01' E 009°18'8 8.1
2015-Mar-05 05:34N 53°54' E 009°10'0 0.3
2015-Mar-05 04:33N 53°54' E 009°09'0 0.0
2015-Mar-05 03:33N 53°54' E 009°09'0 0.0
2015-Mar-05 02:32N 53°54' E 009°09'0 0.0
2015-Mar-05 01:32N 53°54' E 009°09'0 0.0
2015-Mar-05 00:31N 53°54' E 009°09'0 0.0
2015-Mar-04 23:31N 53°54' E 009°09'1 0.8
2015-Mar-04 22:33N 53°54' E 009°09'4 4.5
2015-Mar-04 21:33N 53°52' E 009°02'9 9.2
2015-Mar-04 20:33N 53°51' E 008°46'9 9.4
2015-Mar-04 19:33N 53°58' E 008°36'9 8.8
2015-Mar-04 18:33N 53°59' E 008°21'9 9.1
2015-Mar-04 17:33N 53°59' E 008°06'8 8.4
2015-Mar-04 16:34N 53°57' E 007°52'8 7.9
2015-Mar-04 15:33N 53°55' E 007°38'7 7.5
2015-Mar-04 14:33N 53°53' E 007°26'8 7.7
2015-Mar-04 13:31N 53°52' E 007°13'38 8.5
2015-Mar-04 09:03N 53°42' E 006°11'5 9.3
2015-Mar-04 08:32N 53°41' E 006°03'9 9.6
2015-Mar-04 07:33N 53°38' E 005°48'10 9.8
2015-Mar-04 06:33N 53°35' E 005°32'10 9.7
2015-Mar-04 05:33N 53°32' E 005°17'10 9.7
2015-Mar-04 04:33N 53°28' E 005°02'10 9.8
2015-Mar-04 03:32N 53°24' E 004°46'73 7.8
2015-Mar-03 18:09N 52°19' E 003°52'5 8.0
2015-Mar-03 17:33N 52°14' E 003°53'8 8.3
2015-Mar-03 16:33N 52°06' E 003°55'8 8.4
2015-Mar-03 15:33N 51°59' E 004°03'9 9.4
2015-Mar-03 14:33N 51°54' E 004°16'5 5.3
2015-Mar-03 13:33N 51°54' E 004°25'0 0.0
2015-Mar-03 12:33N 51°54' E 004°25'0 0.0
2015-Mar-03 11:29N 51°54' E 004°25'0 0.0
2015-Mar-03 10:29N 51°54' E 004°25'0 0.0
2015-Mar-03 09:32N 51°54' E 004°25'0 0.0
2015-Mar-03 08:28N 51°54' E 004°25'0 0.0
2015-Mar-03 07:28N 51°54' E 004°25'0 0.0
2015-Mar-03 06:33N 51°54' E 004°25'0 0.0
2015-Mar-03 05:30N 51°54' E 004°25'0 0.0
2015-Mar-03 04:32N 51°54' E 004°25'0 0.0
2015-Mar-03 03:32N 51°54' E 004°25'0 0.0
2015-Mar-03 02:32N 51°54' E 004°25'1 1.1
2015-Mar-03 01:33N 51°54' E 004°23'4 4.1
2015-Mar-03 00:33N 51°50' E 004°26'8 7.8
2015-Mar-02 23:34N 51°48' E 004°38'0 0.0
2015-Mar-02 22:33N 51°48' E 004°38'0 0.0
2015-Mar-02 21:34N 51°48' E 004°38'0 0.0
2015-Mar-02 20:34N 51°48' E 004°38'0 0.0
2015-Mar-02 19:33N 51°48' E 004°38'0 0.0
2015-Mar-02 18:33N 51°48' E 004°38'0 0.0
2015-Mar-02 17:33N 51°48' E 004°38'0 0.0
2015-Mar-02 16:33N 51°48' E 004°38'0 0.0
2015-Mar-02 15:34N 51°48' E 004°38'0 0.0
2015-Mar-02 14:34N 51°48' E 004°38'0 0.0
2015-Mar-02 13:33N 51°48' E 004°38'0 0.0
2015-Mar-02 12:33N 51°48' E 004°38'0 0.0
2015-Mar-02 11:34N 51°48' E 004°38'0 0.0
2015-Mar-02 10:34N 51°48' E 004°38'0 0.0
2015-Mar-02 09:34N 51°48' E 004°38'0 0.0
2015-Mar-02 08:34N 51°48' E 004°38'0 0.0
2015-Mar-02 07:34N 51°48' E 004°38'0 0.0
2015-Mar-02 06:34N 51°48' E 004°38'0 0.0
2015-Mar-02 05:33N 51°48' E 004°38'0 0.0
2015-Mar-02 04:34N 51°48' E 004°38'0 0.0
2015-Mar-02 03:33N 51°48' E 004°38'0 0.0
2015-Mar-02 02:33N 51°48' E 004°38'0 0.0
2015-Mar-02 01:34N 51°48' E 004°38'0 0.0
2015-Mar-02 00:33N 51°48' E 004°38'0 0.0
2015-Mar-01 23:33N 51°48' E 004°38'0 0.0
2015-Mar-01 22:33N 51°48' E 004°38'0 0.0
2015-Mar-01 21:34N 51°48' E 004°38'0 0.0
2015-Mar-01 20:33N 51°48' E 004°38'0 0.0
2015-Mar-01 19:33N 51°48' E 004°38'0 0.0
2015-Mar-01 18:34N 51°48' E 004°38'0 0.0
2015-Mar-01 17:33N 51°48' E 004°38'0 0.0
2015-Mar-01 16:33N 51°48' E 004°38'0 0.0
2015-Mar-01 15:33N 51°48' E 004°38'0 0.0
2015-Mar-01 14:33N 51°48' E 004°38'0 0.0
2015-Mar-01 13:33N 51°48' E 004°38'0 0.0
2015-Mar-01 12:33N 51°48' E 004°38'0 0.0
2015-Mar-01 11:34N 51°48' E 004°38'0 0.0
2015-Mar-01 10:33N 51°48' E 004°38'0 0.0
2015-Mar-01 09:33N 51°48' E 004°38'0 0.0
2015-Mar-01 08:33N 51°48' E 004°38'0 0.0
2015-Mar-01 07:33N 51°48' E 004°38'0 0.0
2015-Mar-01 06:33N 51°48' E 004°38'0 0.0
2015-Mar-01 05:34N 51°48' E 004°38'0 0.0
2015-Mar-01 04:34N 51°48' E 004°38'0 0.0
2015-Mar-01 03:34N 51°48' E 004°38'0 0.0
2015-Mar-01 02:33N 51°48' E 004°38'0 0.0
2015-Mar-01 01:33N 51°48' E 004°38'0 0.0
2015-Mar-01 00:33N 51°48' E 004°38'0 0.0
2015-Feb-28 23:33N 51°48' E 004°38'0 0.0
2015-Feb-28 22:33N 51°48' E 004°38'0 0.0
2015-Feb-28 21:33N 51°48' E 004°38'0 0.0
2015-Feb-28 20:33N 51°48' E 004°38'0 0.0
2015-Feb-28 19:33N 51°48' E 004°38'0 0.0
2015-Feb-28 18:33N 51°48' E 004°38'0 0.0
2015-Feb-28 17:33N 51°48' E 004°38'0 0.0
2015-Feb-28 16:33N 51°48' E 004°38'0 0.0
2015-Feb-28 15:33N 51°48' E 004°38'0 0.0
2015-Feb-28 14:33N 51°48' E 004°38'0 0.0
2015-Feb-28 13:33N 51°48' E 004°38'0 0.0
2015-Feb-28 12:33N 51°48' E 004°38'0 0.0
2015-Feb-28 11:33N 51°48' E 004°38'0 0.0
2015-Feb-28 10:33N 51°48' E 004°38'0 0.0
2015-Feb-28 09:33N 51°48' E 004°38'0 0.0
2015-Feb-28 08:33N 51°48' E 004°38'0 0.0
2015-Feb-28 07:33N 51°48' E 004°38'0 0.0
2015-Feb-28 06:33N 51°48' E 004°38'0 0.0
2015-Feb-28 05:33N 51°48' E 004°38'0 0.0
2015-Feb-28 04:33N 51°48' E 004°38'0 0.0
2015-Feb-28 03:33N 51°48' E 004°38'0 0.0
2015-Feb-28 02:33N 51°48' E 004°38'0 0.0
2015-Feb-28 01:33N 51°48' E 004°38'0 0.0
2015-Feb-28 00:33N 51°48' E 004°38'0 0.0
2015-Feb-27 23:33N 51°48' E 004°38'0 0.0
2015-Feb-27 22:33N 51°48' E 004°38'0 0.0
2015-Feb-27 21:33N 51°48' E 004°38'2 1.9
2015-Feb-27 20:34N 51°48' E 004°35'7 6.9
2015-Feb-27 19:33N 51°51' E 004°25'5 5.4
2015-Feb-27 18:33N 51°54' E 004°18'8 7.9
2015-Feb-27 17:33N 51°58' E 004°07'8 7.5
2015-Feb-27 16:33N 52°01' E 003°56'  
2015-Feb-25 12:18N 58°12' E 005°47'6 7.2
2015-Feb-25 11:30N 58°18' E 005°49'7 7.2
2015-Feb-25 10:33N 58°25' E 005°50'4 3.8
2015-Feb-25 09:29N 58°29' E 005°53'0 0.0
2015-Feb-25 06:33N 58°29' E 005°53'0 0.0
2015-Feb-25 05:21N 58°29' E 005°53'0 0.0
2015-Feb-25 04:26N 58°29' E 005°53'0 0.0
2015-Feb-25 03:26N 58°29' E 005°53'0 0.0
2015-Feb-25 02:19N 58°29' E 005°53'0 0.0
2015-Feb-25 01:07N 58°29' E 005°53'0 0.0
2015-Feb-25 00:31N 58°29' E 005°53'0 0.0
2015-Feb-24 23:30N 58°29' E 005°53'0 0.0
2015-Feb-24 20:05N 58°29' E 005°53'0 0.0
2015-Feb-24 19:16N 58°29' E 005°53'0 0.0
2015-Feb-24 16:27N 58°29' E 005°53'4 4.7
2015-Feb-24 15:34N 58°24' E 005°53'2 1.8
2015-Feb-24 14:33N 58°24' E 005°56'6 6.2
2015-Feb-24 13:33N 58°27' E 005°46'8 7.0
2015-Feb-24 12:25N 58°32' E 005°35'18 5.5
2015-Feb-24 09:09N 58°47' E 005°16'2 3.4
2015-Feb-24 08:34N 58°49' E 005°14'4 3.5
2015-Feb-24 07:32N 58°52' E 005°10'4 4.0
2015-Feb-24 06:34N 58°55' E 005°06'  

Dump ship's entire track history